createdAt,value
2023-05-13T00:02:29.668Z,56.82
2023-05-13T00:04:56.613Z,57.75
2023-05-13T00:07:23.725Z,56.85
2023-05-13T00:09:50.864Z,56.92
2023-05-13T00:12:20.470Z,57.10
2023-05-13T00:14:47.283Z,56.36
2023-05-13T00:17:14.468Z,56.64
2023-05-13T00:19:41.508Z,56.76
2023-05-13T00:22:08.330Z,56.39
2023-05-13T00:24:35.282Z,56.54
2023-05-13T00:27:05.183Z,57.77
2023-05-13T00:29:34.462Z,56.93
2023-05-13T00:32:03.664Z,57.38
2023-05-13T00:34:32.730Z,57.09
2023-05-13T00:37:00.992Z,57.36
2023-05-13T00:39:30.506Z,56.73
2023-05-13T00:41:57.454Z,57.39
2023-05-13T00:44:24.341Z,57.50
2023-05-13T00:46:51.248Z,57.33
2023-05-13T00:49:20.279Z,57.71
2023-05-13T00:51:52.461Z,57.66
2023-05-13T00:54:19.284Z,57.96
2023-05-13T00:56:46.197Z,57.24
2023-05-13T00:59:15.305Z,57.93
2023-05-13T01:02:04.191Z,58.26
2023-05-13T01:05:00.108Z,58.30
2023-05-13T01:07:51.215Z,58.74
2023-05-13T01:10:45.260Z,59.05
2023-05-13T01:13:20.472Z,59.52
2023-05-13T01:16:21.584Z,59.87
2023-05-13T01:19:07.217Z,60.11
2023-05-13T01:21:41.380Z,59.83
2023-05-13T01:24:08.446Z,59.26
2023-05-13T01:26:35.377Z,58.83
2023-05-13T01:29:08.954Z,59.55
2023-05-13T01:31:39.297Z,59.70
2023-05-13T01:34:06.730Z,59.86
2023-05-13T01:36:33.667Z,59.42
2023-05-13T01:39:03.527Z,59.44
2023-05-13T01:41:30.390Z,59.74
2023-05-13T01:43:57.653Z,60.12
2023-05-13T01:46:24.571Z,59.70
2023-05-13T01:48:51.513Z,60.00
2023-05-13T01:51:20.680Z,60.16
2023-05-13T01:53:47.520Z,60.13
2023-05-13T01:56:19.433Z,60.40
2023-05-13T01:58:46.259Z,60.23
2023-05-13T02:01:15.398Z,60.08
2023-05-13T02:03:45.103Z,60.05
2023-05-13T02:06:14.365Z,60.02
2023-05-13T02:08:41.242Z,59.79
2023-05-13T02:11:08.145Z,59.63
2023-05-13T02:13:37.365Z,60.28
2023-05-13T02:16:04.566Z,60.76
2023-05-13T02:18:31.660Z,60.70
2023-05-13T02:21:01.042Z,60.69
2023-05-13T02:23:27.902Z,60.69
2023-05-13T02:25:56.958Z,61.18
2023-05-13T02:28:23.844Z,61.87
2023-05-13T02:30:52.932Z,61.67
2023-05-13T02:33:19.790Z,62.25
2023-05-13T02:35:46.661Z,62.29
2023-05-13T02:38:13.578Z,62.54
2023-05-13T02:40:44.955Z,62.85
2023-05-13T02:43:11.828Z,62.48
2023-05-13T02:45:41.345Z,61.72
2023-05-13T02:48:08.467Z,62.28
2023-05-13T02:50:35.472Z,62.29
2023-05-13T02:53:02.372Z,62.76
2023-05-13T02:55:29.239Z,62.67
2023-05-13T02:57:59.196Z,62.25
2023-05-13T03:00:26.219Z,62.06
2023-05-13T03:02:53.128Z,62.60
2023-05-13T03:05:22.722Z,62.41
2023-05-13T03:07:51.949Z,62.84
2023-05-13T03:10:19.105Z,63.57
2023-05-13T03:12:46.849Z,63.52
2023-05-13T03:15:16.098Z,63.94
2023-05-13T03:17:44.322Z,63.72
2023-05-13T03:20:11.941Z,64.47
2023-05-13T03:22:38.866Z,64.50
2023-05-13T03:25:08.981Z,64.43
2023-05-13T03:27:35.872Z,63.83
2023-05-13T03:30:02.786Z,64.35
2023-05-13T03:32:32.038Z,64.12
2023-05-13T03:35:00.824Z,64.72
2023-05-13T03:37:27.773Z,64.89
2023-05-13T03:39:54.740Z,64.71
2023-05-13T03:42:23.278Z,64.66
2023-05-13T03:44:51.265Z,64.95
2023-05-13T03:47:18.273Z,64.99
2023-05-13T03:49:45.914Z,64.58
2023-05-13T03:52:16.638Z,64.31
2023-05-13T03:54:46.056Z,64.10
2023-05-13T03:57:12.987Z,64.01
2023-05-13T03:59:39.854Z,63.95
2023-05-13T04:02:09.790Z,64.00
2023-05-13T04:04:36.663Z,63.53
2023-05-13T04:07:03.638Z,63.53
2023-05-13T04:09:30.570Z,63.38
2023-05-13T04:12:02.102Z,63.47
2023-05-13T04:14:31.184Z,63.13
2023-05-13T04:16:58.132Z,63.03
2023-05-13T04:19:27.117Z,62.80
2023-05-13T04:21:53.993Z,62.71
2023-05-13T04:24:20.901Z,62.29
2023-05-13T04:26:47.873Z,61.75
2023-05-13T04:29:17.204Z,62.08
2023-05-13T04:31:45.119Z,61.39
2023-05-13T04:34:12.037Z,60.73
2023-05-13T04:36:38.893Z,61.36
2023-05-13T04:39:08.277Z,61.14
2023-05-13T04:41:35.283Z,60.38
2023-05-13T04:44:02.659Z,60.42
2023-05-13T04:46:32.118Z,60.83
2023-05-13T04:48:59.003Z,59.60
2023-05-13T04:51:26.403Z,58.95
2023-05-13T04:53:53.804Z,59.85
2023-05-13T04:56:23.315Z,59.93
2023-05-13T04:58:50.552Z,59.49
2023-05-13T05:01:19.545Z,58.23
2023-05-13T05:03:46.544Z,59.51
2023-05-13T05:06:13.432Z,58.74
2023-05-13T05:08:40.372Z,58.55
2023-05-13T05:11:07.252Z,57.61
2023-05-13T05:13:34.111Z,57.62
2023-05-13T05:16:01.014Z,57.09
2023-05-13T05:18:28.071Z,57.08
2023-05-13T05:20:55.045Z,56.85
2023-05-13T05:23:23.995Z,57.13
2023-05-13T05:26:04.083Z,56.83
2023-05-13T05:28:35.312Z,56.99
2023-05-13T05:31:02.873Z,57.64
2023-05-13T05:33:29.838Z,55.64
2023-05-13T05:35:56.708Z,56.03
2023-05-13T05:38:25.675Z,55.62
2023-05-13T05:40:55.077Z,55.27
2023-05-13T05:43:24.557Z,56.19
2023-05-13T05:45:51.411Z,56.34
2023-05-13T05:48:21.346Z,55.73
2023-05-13T05:50:49.062Z,55.86
2023-05-13T05:53:16.047Z,55.29
2023-05-13T05:55:42.859Z,54.83
2023-05-13T05:58:18.068Z,55.20
2023-05-13T06:00:44.928Z,55.09
2023-05-13T06:03:15.145Z,54.84
2023-05-13T06:05:42.709Z,53.89
2023-05-13T06:08:09.600Z,53.87
2023-05-13T06:10:38.726Z,53.38
2023-05-13T06:13:05.692Z,53.95
2023-05-13T06:15:35.554Z,52.71
2023-05-13T06:18:05.729Z,52.67
2023-05-13T06:20:35.094Z,53.17
2023-05-13T06:23:02.024Z,53.38
2023-05-13T06:25:28.868Z,52.31
2023-05-13T06:27:59.015Z,52.08
2023-05-13T06:30:27.282Z,51.66
2023-05-13T06:33:02.112Z,51.61
2023-05-13T06:35:29.593Z,51.79
2023-05-13T06:37:56.480Z,50.97
2023-05-13T06:40:23.567Z,50.80
2023-05-13T06:42:50.760Z,50.75
2023-05-13T06:45:18.404Z,50.30
2023-05-13T06:47:45.389Z,50.13
2023-05-13T06:50:12.305Z,50.23
2023-05-13T06:52:41.847Z,49.08
2023-05-13T06:55:13.989Z,48.79
2023-05-13T06:57:43.517Z,48.62
2023-05-13T07:00:19.480Z,48.32
2023-05-13T07:02:46.591Z,49.20
2023-05-13T07:05:20.755Z,48.66
2023-05-13T07:07:48.117Z,48.54
2023-05-13T07:10:14.957Z,47.27
2023-05-13T07:12:41.834Z,47.15
2023-05-13T07:15:09.160Z,46.38
2023-05-13T07:17:36.175Z,46.57
2023-05-13T07:20:05.833Z,45.92
2023-05-13T07:22:32.771Z,45.59
2023-05-13T07:24:59.684Z,45.42
2023-05-13T07:27:28.677Z,46.26
2023-05-13T07:29:55.675Z,46.17
2023-05-13T07:32:25.588Z,45.64
2023-05-13T07:34:52.437Z,46.65
2023-05-13T07:37:19.376Z,45.85
2023-05-13T07:39:46.246Z,45.82
2023-05-13T07:42:13.370Z,46.19
2023-05-13T07:44:40.439Z,46.36
2023-05-13T07:47:09.501Z,45.42
2023-05-13T07:49:38.675Z,46.16
2023-05-13T07:52:05.964Z,45.36
2023-05-13T07:54:37.441Z,44.85
2023-05-13T07:57:04.348Z,43.94
2023-05-13T07:59:31.214Z,43.13
2023-05-13T08:01:58.134Z,43.23
2023-05-13T08:04:25.247Z,42.71
2023-05-13T08:06:52.783Z,42.57
2023-05-13T08:09:22.021Z,42.17
2023-05-13T08:11:48.969Z,42.28
2023-05-13T08:14:15.949Z,42.40
2023-05-13T08:16:42.858Z,41.95
2023-05-13T08:19:10.157Z,42.50
2023-05-13T08:21:37.064Z,42.42
2023-05-13T08:24:12.230Z,42.67
2023-05-13T08:26:39.113Z,41.25
2023-05-13T08:29:12.764Z,40.95
2023-05-13T08:31:39.837Z,40.60
2023-05-13T08:34:06.858Z,39.56
2023-05-13T08:36:33.979Z,38.67
2023-05-13T08:39:01.485Z,39.40
2023-05-13T08:41:31.769Z,39.03
2023-05-13T08:44:06.089Z,38.50
2023-05-13T08:46:39.089Z,38.57
2023-05-13T08:49:07.147Z,37.28
2023-05-13T08:51:34.215Z,37.35
2023-05-13T08:54:04.221Z,36.46
2023-05-13T08:56:33.259Z,36.55
2023-05-13T08:59:03.234Z,35.97
2023-05-13T09:01:33.659Z,36.46
2023-05-13T09:04:06.545Z,36.60
2023-05-13T09:06:33.778Z,36.97
2023-05-13T09:09:03.221Z,35.75
2023-05-13T09:11:33.975Z,35.86
2023-05-13T09:14:08.392Z,35.19
2023-05-13T09:16:36.702Z,35.47
2023-05-13T09:19:06.329Z,34.83
2023-05-13T09:21:36.327Z,35.62
2023-05-13T09:24:22.555Z,35.58
2023-05-13T09:26:51.694Z,35.41
2023-05-13T09:29:22.656Z,35.18
2023-05-13T09:31:57.942Z,33.64
2023-05-13T09:34:35.315Z,33.51
2023-05-13T09:37:09.451Z,33.60
2023-05-13T09:39:42.161Z,32.44
2023-05-13T09:42:19.675Z,32.52
2023-05-13T09:44:47.874Z,31.22
2023-05-13T09:47:16.021Z,32.13
2023-05-13T09:49:57.276Z,32.29
2023-05-13T09:52:24.229Z,31.51
2023-05-13T09:54:51.213Z,31.27
2023-05-13T09:57:21.159Z,31.02
2023-05-13T09:59:48.148Z,31.43
2023-05-13T10:02:18.644Z,30.37
2023-05-13T10:04:45.922Z,30.30
2023-05-13T10:07:13.328Z,30.65
2023-05-13T10:09:43.761Z,30.64
2023-05-13T10:12:14.303Z,31.37
2023-05-13T10:14:45.134Z,29.95
2023-05-13T10:17:12.502Z,30.48
2023-05-13T10:19:39.755Z,30.88
2023-05-13T10:22:09.792Z,29.94
2023-05-13T10:24:41.160Z,29.98
2023-05-13T10:27:08.722Z,29.55
2023-05-13T10:29:39.047Z,28.63
2023-05-13T10:32:10.213Z,27.43
2023-05-13T10:34:38.607Z,27.37
2023-05-13T10:37:43.474Z,26.81
2023-05-13T10:40:25.097Z,27.07
2023-05-13T10:43:21.033Z,25.84
2023-05-13T10:45:56.485Z,25.98
2023-05-13T10:48:23.549Z,25.97
2023-05-13T10:51:01.837Z,26.53
2023-05-13T10:53:32.439Z,25.93
2023-05-13T10:56:00.169Z,24.77
2023-05-13T10:58:32.677Z,25.29
2023-05-13T11:01:29.592Z,25.50
2023-05-13T11:04:02.847Z,25.11
2023-05-13T11:06:37.671Z,25.82
2023-05-13T11:09:09.213Z,25.07
2023-05-13T11:11:38.610Z,24.33
2023-05-13T11:14:18.158Z,24.13
2023-05-13T11:17:01.222Z,24.11
2023-05-13T11:19:30.103Z,23.31
2023-05-13T11:22:16.178Z,23.46
2023-05-13T11:24:46.733Z,23.98
2023-05-13T11:27:14.264Z,25.11
2023-05-13T11:29:49.771Z,24.39
2023-05-13T11:32:56.592Z,23.68
2023-05-13T11:35:34.790Z,23.70
2023-05-13T11:38:03.701Z,23.58
2023-05-13T11:40:36.361Z,23.18
2023-05-13T11:43:07.493Z,23.58
2023-05-13T11:45:40.008Z,23.33
2023-05-13T11:48:26.306Z,23.26
2023-05-13T11:50:56.961Z,22.41
2023-05-13T11:53:27.051Z,21.12
2023-05-13T11:55:56.153Z,22.14
2023-05-13T11:58:22.992Z,21.75
2023-05-13T12:00:49.877Z,21.09
2023-05-13T12:03:19.349Z,21.12
2023-05-13T12:05:46.609Z,21.38
2023-05-13T12:08:16.811Z,20.93
2023-05-13T12:10:46.433Z,21.30
2023-05-13T12:13:13.535Z,21.63
2023-05-13T12:15:41.373Z,21.57
2023-05-13T12:18:08.404Z,21.81
2023-05-13T12:20:38.220Z,22.07
2023-05-13T12:23:11.548Z,21.39
2023-05-13T12:25:43.464Z,20.54
2023-05-13T12:28:25.801Z,20.72
2023-05-13T12:31:01.719Z,21.10
2023-05-13T12:33:34.836Z,21.17
2023-05-13T12:36:21.603Z,21.01
2023-05-13T12:39:05.649Z,20.28
2023-05-13T12:41:35.458Z,20.84
2023-05-13T12:44:13.551Z,20.86
2023-05-13T12:46:53.960Z,20.82
2023-05-13T12:49:23.519Z,21.20
2023-05-13T12:51:51.732Z,20.73
2023-05-13T12:54:18.991Z,21.23
2023-05-13T12:56:45.865Z,20.98
2023-05-13T12:59:15.734Z,22.24
2023-05-13T13:01:42.985Z,21.77
2023-05-13T13:04:10.214Z,21.17
2023-05-13T13:06:37.280Z,21.44
2023-05-13T13:09:07.363Z,21.16
2023-05-13T13:11:34.222Z,20.12
2023-05-13T13:14:01.111Z,20.24
2023-05-13T13:16:28.005Z,20.93
2023-05-13T13:18:58.940Z,20.44
2023-05-13T13:21:26.718Z,20.41
2023-05-13T13:23:55.825Z,20.58
2023-05-13T13:26:25.056Z,21.10
2023-05-13T13:28:54.325Z,20.38
2023-05-13T13:31:21.849Z,21.15
2023-05-13T13:33:48.697Z,20.88
2023-05-13T13:36:16.804Z,19.31
2023-05-13T13:38:46.709Z,19.90
2023-05-13T13:41:13.532Z,19.95
2023-05-13T13:43:42.882Z,19.80
2023-05-13T13:46:09.805Z,20.18
2023-05-13T13:48:36.702Z,20.90
2023-05-13T13:51:03.671Z,20.36
2023-05-13T13:53:33.066Z,20.41
2023-05-13T13:55:59.954Z,21.52
2023-05-13T13:58:29.329Z,21.48
2023-05-13T14:00:56.662Z,21.51
2023-05-13T14:03:23.678Z,21.62
2023-05-13T14:05:52.049Z,22.07
2023-05-13T14:08:19.096Z,21.35
2023-05-13T14:10:48.293Z,21.58
2023-05-13T14:13:15.461Z,21.58
2023-05-13T14:15:42.380Z,21.54
2023-05-13T14:18:11.763Z,21.72
2023-05-13T14:20:39.280Z,21.98
2023-05-13T14:23:06.354Z,21.14
2023-05-13T14:25:33.332Z,21.18
2023-05-13T14:28:00.468Z,20.02
2023-05-13T14:30:27.902Z,20.22
2023-05-13T14:32:54.977Z,21.06
2023-05-13T14:35:21.925Z,21.51
2023-05-13T14:37:49.016Z,21.68
2023-05-13T14:40:16.225Z,21.44
2023-05-13T14:42:43.137Z,21.31
2023-05-13T14:45:13.583Z,21.08
2023-05-13T14:47:43.064Z,21.71
2023-05-13T14:50:12.557Z,22.66
2023-05-13T14:52:39.545Z,22.03
2023-05-13T14:55:07.007Z,22.44
2023-05-13T14:57:34.017Z,21.88
2023-05-13T15:00:01.173Z,22.62
2023-05-13T15:02:29.029Z,21.75
2023-05-13T15:04:59.614Z,21.59
2023-05-13T15:07:27.124Z,21.72
2023-05-13T15:09:54.756Z,21.78
2023-05-13T15:12:23.943Z,22.00
2023-05-13T15:14:55.260Z,21.55
2023-05-13T15:17:24.435Z,21.56
2023-05-13T15:19:53.611Z,21.44
2023-05-13T15:22:20.567Z,21.38
2023-05-13T15:24:50.611Z,22.13
2023-05-13T15:27:19.600Z,22.33
2023-05-13T15:29:46.465Z,23.17
2023-05-13T15:32:17.823Z,22.82
2023-05-13T15:34:44.662Z,22.94
2023-05-13T15:37:16.342Z,22.73
2023-05-13T15:39:44.186Z,23.51
2023-05-13T15:42:11.105Z,23.35
2023-05-13T15:44:40.246Z,22.66
2023-05-13T15:47:08.470Z,22.07
2023-05-13T15:49:35.670Z,21.96
2023-05-13T15:52:07.123Z,23.01
2023-05-13T15:54:34.650Z,22.12
2023-05-13T15:57:01.513Z,22.60
2023-05-13T15:59:30.662Z,23.19
2023-05-13T16:01:59.926Z,23.25
2023-05-13T16:04:27.089Z,23.03
2023-05-13T16:06:54.055Z,22.72
2023-05-13T16:09:20.909Z,22.74
2023-05-13T16:11:50.182Z,22.73
2023-05-13T16:14:19.764Z,23.15
2023-05-13T16:16:46.923Z,23.29
2023-05-13T16:19:14.188Z,23.02
2023-05-13T16:21:44.149Z,22.81
2023-05-13T16:24:11.229Z,22.86
2023-05-13T16:26:40.422Z,23.04
2023-05-13T16:29:07.323Z,23.17
2023-05-13T16:31:34.361Z,24.13
2023-05-13T16:34:01.185Z,24.07
2023-05-13T16:36:32.750Z,24.79
2023-05-13T16:39:01.816Z,24.18
2023-05-13T16:41:31.414Z,23.48
2023-05-13T16:44:05.522Z,23.75
2023-05-13T16:46:35.421Z,23.75
2023-05-13T16:49:02.434Z,23.85
2023-05-13T16:51:29.417Z,24.04
2023-05-13T16:53:58.775Z,23.79
2023-05-13T16:56:28.145Z,24.00
2023-05-13T16:58:57.345Z,24.00
2023-05-13T17:01:24.290Z,23.66
2023-05-13T17:03:51.157Z,23.43
2023-05-13T17:06:18.044Z,23.46
2023-05-13T17:08:44.853Z,23.93
2023-05-13T17:11:16.784Z,23.83
2023-05-13T17:13:46.360Z,24.31
2023-05-13T17:16:13.319Z,23.70
2023-05-13T17:18:42.405Z,24.01
2023-05-13T17:21:09.395Z,24.31
2023-05-13T17:23:36.215Z,24.50
2023-05-13T17:26:03.671Z,24.38
2023-05-13T17:28:30.623Z,24.40
2023-05-13T17:30:59.665Z,24.27
2023-05-13T17:33:28.651Z,24.48
2023-05-13T17:35:55.651Z,24.47
2023-05-13T17:38:25.042Z,24.26
2023-05-13T17:40:55.123Z,24.84
2023-05-13T17:43:22.075Z,25.31
2023-05-13T17:45:51.171Z,25.50
2023-05-13T17:48:21.079Z,25.70
2023-05-13T17:50:48.124Z,25.94
2023-05-13T17:53:17.957Z,26.15
2023-05-13T17:55:48.527Z,26.23
2023-05-13T17:58:16.374Z,26.47
2023-05-13T18:00:43.735Z,26.78
2023-05-13T18:03:10.955Z,26.55
2023-05-13T18:05:37.983Z,26.46
2023-05-13T18:08:05.144Z,26.53
2023-05-13T18:10:36.777Z,27.30
2023-05-13T18:13:06.758Z,27.01
2023-05-13T18:15:34.804Z,27.59
2023-05-13T18:18:04.035Z,27.49
2023-05-13T18:20:32.477Z,27.33
2023-05-13T18:23:01.801Z,27.70
2023-05-13T18:25:31.418Z,28.26
2023-05-13T18:28:00.921Z,28.49
2023-05-13T18:30:32.784Z,28.29
2023-05-13T18:32:59.762Z,28.94
2023-05-13T18:35:29.292Z,28.75
2023-05-13T18:37:58.176Z,29.90
2023-05-13T18:40:27.703Z,29.77
2023-05-13T18:42:59.078Z,30.27
2023-05-13T18:45:26.016Z,30.65
2023-05-13T18:47:52.856Z,30.55
2023-05-13T18:50:19.813Z,31.17
2023-05-13T18:52:49.722Z,31.48
2023-05-13T18:55:19.073Z,31.29
2023-05-13T18:57:46.433Z,31.22
2023-05-13T19:00:13.916Z,31.27
2023-05-13T19:02:43.665Z,31.26
2023-05-13T19:05:10.919Z,31.73
2023-05-13T19:07:40.392Z,32.08
2023-05-13T19:10:07.665Z,31.86
2023-05-13T19:12:34.497Z,31.85
2023-05-13T19:15:01.400Z,32.37
2023-05-13T19:17:30.968Z,32.76
2023-05-13T19:20:01.178Z,32.58
2023-05-13T19:22:28.073Z,32.87
2023-05-13T19:24:57.134Z,32.76
2023-05-13T19:27:27.137Z,32.84
2023-05-13T19:29:53.977Z,32.95
2023-05-13T19:32:23.314Z,33.15
2023-05-13T19:34:50.451Z,33.12
2023-05-13T19:37:17.309Z,33.21
2023-05-13T19:39:45.223Z,33.52
2023-05-13T19:42:12.100Z,33.85
2023-05-13T19:44:39.042Z,34.18
2023-05-13T19:47:06.418Z,34.58
2023-05-13T19:49:33.360Z,34.49
2023-05-13T19:52:00.244Z,34.82
2023-05-13T19:54:27.090Z,34.83
2023-05-13T19:56:53.981Z,35.09
2023-05-13T19:59:20.869Z,35.34
2023-05-13T20:01:50.847Z,35.76
2023-05-13T20:04:19.925Z,36.08
2023-05-13T20:06:46.795Z,35.81
2023-05-13T20:09:14.389Z,36.42
2023-05-13T20:11:41.254Z,36.62
2023-05-13T20:14:12.386Z,37.25
2023-05-13T20:16:39.430Z,37.31
2023-05-13T20:19:06.475Z,37.73
2023-05-13T20:21:33.389Z,38.39
2023-05-13T20:24:00.366Z,37.75
2023-05-13T20:26:29.549Z,38.51
2023-05-13T20:28:58.596Z,38.28
2023-05-13T20:31:25.640Z,38.62
2023-05-13T20:33:55.239Z,39.12
2023-05-13T20:36:22.113Z,38.94
2023-05-13T20:38:49.161Z,39.41
2023-05-13T20:41:16.050Z,39.37
2023-05-13T20:43:42.996Z,40.22
2023-05-13T20:46:16.864Z,39.83
2023-05-13T20:48:47.880Z,40.27
2023-05-13T20:51:14.740Z,40.35
2023-05-13T20:53:41.763Z,40.20
2023-05-13T20:56:10.089Z,40.03
2023-05-13T20:58:39.426Z,39.86
2023-05-13T21:01:08.846Z,40.14
2023-05-13T21:03:35.820Z,40.09
2023-05-13T21:06:05.001Z,40.14
2023-05-13T21:08:31.946Z,39.84
2023-05-13T21:10:58.945Z,40.49
2023-05-13T21:13:25.942Z,40.44
2023-05-13T21:15:52.955Z,40.54
2023-05-13T21:18:19.900Z,40.20
2023-05-13T21:20:50.190Z,40.35
2023-05-13T21:23:19.330Z,40.57
2023-05-13T21:25:49.852Z,40.82
2023-05-13T21:28:18.615Z,40.83
2023-05-13T21:30:46.108Z,40.75
2023-05-13T21:33:16.794Z,40.85
2023-05-13T21:35:43.728Z,40.71
2023-05-13T21:38:15.241Z,41.37
2023-05-13T21:40:44.648Z,41.58
2023-05-13T21:43:11.513Z,41.41
2023-05-13T21:45:38.510Z,41.51
2023-05-13T21:48:06.025Z,41.63
2023-05-13T21:50:34.126Z,41.99
2023-05-13T21:53:00.999Z,42.17
2023-05-13T21:55:27.927Z,42.56
2023-05-13T21:57:57.529Z,42.31
2023-05-13T22:00:26.980Z,42.18
2023-05-13T22:03:00.498Z,42.16
2023-05-13T22:05:30.238Z,42.08
2023-05-13T22:08:00.222Z,43.03
2023-05-13T22:10:27.307Z,43.05
2023-05-13T22:12:56.802Z,43.00
2023-05-13T22:15:23.707Z,43.56
2023-05-13T22:17:51.000Z,43.58
2023-05-13T22:20:23.375Z,43.75
2023-05-13T22:22:50.670Z,44.61
2023-05-13T22:25:20.001Z,44.30
2023-05-13T22:27:50.664Z,44.62
2023-05-13T22:30:17.854Z,44.50
2023-05-13T22:32:44.863Z,44.74
2023-05-13T22:35:14.786Z,43.74
2023-05-13T22:37:41.707Z,43.81
2023-05-13T22:40:18.273Z,43.27
2023-05-13T22:42:47.719Z,43.48
2023-05-13T22:45:14.678Z,43.22
2023-05-13T22:47:42.021Z,42.94
2023-05-13T22:50:09.637Z,43.25
2023-05-13T22:52:36.488Z,44.29
2023-05-13T22:55:06.401Z,45.32
2023-05-13T22:57:33.259Z,45.39
2023-05-13T23:00:00.250Z,45.47
2023-05-13T23:02:27.178Z,45.30
2023-05-13T23:04:54.211Z,45.16
2023-05-13T23:07:24.234Z,44.97
2023-05-13T23:09:53.317Z,45.69
2023-05-13T23:12:20.282Z,46.24
2023-05-13T23:14:47.124Z,46.69
2023-05-13T23:17:14.403Z,47.97
2023-05-13T23:19:41.281Z,46.51
2023-05-13T23:22:08.190Z,47.46
2023-05-13T23:24:38.109Z,46.32
2023-05-13T23:27:07.328Z,45.60
2023-05-13T23:29:36.415Z,45.83
2023-05-13T23:32:05.909Z,45.88
2023-05-13T23:34:33.972Z,46.07
2023-05-13T23:37:03.221Z,46.10
2023-05-13T23:39:32.330Z,46.41
2023-05-13T23:42:01.468Z,46.19
2023-05-13T23:44:28.328Z,46.99
2023-05-13T23:46:55.234Z,46.72
2023-05-13T23:49:22.248Z,47.47
2023-05-13T23:51:49.132Z,48.22
2023-05-13T23:54:16.630Z,47.73
2023-05-13T23:56:46.004Z,48.34
2023-05-13T23:59:13.006Z,49.11
